sensor_id;sensor_type;location;lat;lon;timestamp;P1;durP1;ratioP1;P2;durP2;ratioP2
77298;SDS011;66361;52.034;20.656;2023-04-09T00:03:15;19.75;;;12.68;;
77298;SDS011;66361;52.034;20.656;2023-04-09T00:07:19;19.40;;;11.27;;
77298;SDS011;66361;52.034;20.656;2023-04-09T00:11:24;22.40;;;13.13;;
77298;SDS011;66361;52.034;20.656;2023-04-09T00:15:29;20.13;;;12.10;;
77298;SDS011;66361;52.034;20.656;2023-04-09T00:19:34;22.58;;;12.98;;
77298;SDS011;66361;52.034;20.656;2023-04-09T00:23:37;22.77;;;11.65;;
77298;SDS011;66361;52.034;20.656;2023-04-09T00:27:42;22.52;;;13.52;;
77298;SDS011;66361;52.034;20.656;2023-04-09T00:31:45;22.52;;;12.23;;
77298;SDS011;66361;52.034;20.656;2023-04-09T00:35:51;21.17;;;11.93;;
77298;SDS011;66361;52.034;20.656;2023-04-09T00:39:54;24.58;;;13.13;;
77298;SDS011;66361;52.034;20.656;2023-04-09T00:43:58;21.48;;;11.80;;
77298;SDS011;66361;52.034;20.656;2023-04-09T00:48:01;22.23;;;12.68;;
77298;SDS011;66361;52.034;20.656;2023-04-09T00:52:09;22.90;;;12.57;;
77298;SDS011;66361;52.034;20.656;2023-04-09T00:56:12;21.60;;;12.35;;
77298;SDS011;66361;52.034;20.656;2023-04-09T01:00:18;21.98;;;12.40;;
77298;SDS011;66361;52.034;20.656;2023-04-09T01:04:22;21.55;;;12.32;;
77298;SDS011;66361;52.034;20.656;2023-04-09T01:08:29;23.85;;;12.05;;
77298;SDS011;66361;52.034;20.656;2023-04-09T01:12:41;20.83;;;12.85;;
77298;SDS011;66361;52.034;20.656;2023-04-09T01:16:52;20.15;;;11.15;;
77298;SDS011;66361;52.034;20.656;2023-04-09T01:21:03;20.20;;;11.73;;
77298;SDS011;66361;52.034;20.656;2023-04-09T01:25:11;23.73;;;11.93;;
77298;SDS011;66361;52.034;20.656;2023-04-09T01:29:33;20.38;;;11.05;;
77298;SDS011;66361;52.034;20.656;2023-04-09T01:33:43;20.77;;;10.82;;
77298;SDS011;66361;52.034;20.656;2023-04-09T01:37:47;19.95;;;10.98;;
77298;SDS011;66361;52.034;20.656;2023-04-09T01:41:51;20.58;;;10.27;;
77298;SDS011;66361;52.034;20.656;2023-04-09T01:45:59;19.23;;;11.10;;
77298;SDS011;66361;52.034;20.656;2023-04-09T01:50:04;18.17;;;10.52;;
77298;SDS011;66361;52.034;20.656;2023-04-09T01:54:08;18.40;;;10.90;;
77298;SDS011;66361;52.034;20.656;2023-04-09T01:58:11;20.42;;;12.73;;
77298;SDS011;66361;52.034;20.656;2023-04-09T02:02:16;20.65;;;11.40;;
77298;SDS011;66361;52.034;20.656;2023-04-09T02:06:25;21.67;;;12.48;;
77298;SDS011;66361;52.034;20.656;2023-04-09T02:10:37;21.75;;;10.73;;
77298;SDS011;66361;52.034;20.656;2023-04-09T02:14:42;19.95;;;11.13;;
77298;SDS011;66361;52.034;20.656;2023-04-09T02:18:53;18.33;;;11.40;;
77298;SDS011;66361;52.034;20.656;2023-04-09T02:22:57;20.73;;;11.80;;
77298;SDS011;66361;52.034;20.656;2023-04-09T02:27:00;19.55;;;10.63;;
77298;SDS011;66361;52.034;20.656;2023-04-09T02:31:04;19.25;;;11.13;;
77298;SDS011;66361;52.034;20.656;2023-04-09T02:39:11;19.60;;;11.50;;
77298;SDS011;66361;52.034;20.656;2023-04-09T02:43:15;20.92;;;10.38;;
77298;SDS011;66361;52.034;20.656;2023-04-09T02:47:20;19.80;;;10.93;;
77298;SDS011;66361;52.034;20.656;2023-04-09T02:51:28;17.23;;;10.07;;
77298;SDS011;66361;52.034;20.656;2023-04-09T02:55:31;20.58;;;10.90;;
77298;SDS011;66361;52.034;20.656;2023-04-09T02:59:34;24.73;;;11.80;;
77298;SDS011;66361;52.034;20.656;2023-04-09T03:03:39;21.00;;;11.30;;
77298;SDS011;66361;52.034;20.656;2023-04-09T03:07:44;23.20;;;12.10;;
77298;SDS011;66361;52.034;20.656;2023-04-09T03:11:48;21.80;;;11.05;;
77298;SDS011;66361;52.034;20.656;2023-04-09T03:15:51;20.55;;;12.35;;
77298;SDS011;66361;52.034;20.656;2023-04-09T03:19:55;19.30;;;10.27;;
77298;SDS011;66361;52.034;20.656;2023-04-09T03:23:59;22.80;;;11.63;;
77298;SDS011;66361;52.034;20.656;2023-04-09T03:28:04;23.60;;;11.82;;
77298;SDS011;66361;52.034;20.656;2023-04-09T03:32:07;25.23;;;12.15;;
77298;SDS011;66361;52.034;20.656;2023-04-09T03:36:10;22.73;;;12.77;;
77298;SDS011;66361;52.034;20.656;2023-04-09T03:40:14;23.75;;;12.50;;
77298;SDS011;66361;52.034;20.656;2023-04-09T03:44:17;21.70;;;11.85;;
77298;SDS011;66361;52.034;20.656;2023-04-09T03:48:20;23.75;;;12.38;;
77298;SDS011;66361;52.034;20.656;2023-04-09T03:52:23;21.85;;;10.82;;
77298;SDS011;66361;52.034;20.656;2023-04-09T03:56:28;23.45;;;12.05;;
77298;SDS011;66361;52.034;20.656;2023-04-09T04:00:31;17.98;;;11.30;;
77298;SDS011;66361;52.034;20.656;2023-04-09T04:04:34;21.92;;;12.40;;
77298;SDS011;66361;52.034;20.656;2023-04-09T04:08:37;24.05;;;13.90;;
77298;SDS011;66361;52.034;20.656;2023-04-09T04:16:44;21.23;;;11.80;;
77298;SDS011;66361;52.034;20.656;2023-04-09T04:20:48;24.70;;;14.30;;
77298;SDS011;66361;52.034;20.656;2023-04-09T04:24:51;25.50;;;14.48;;
77298;SDS011;66361;52.034;20.656;2023-04-09T04:28:57;22.40;;;13.50;;
77298;SDS011;66361;52.034;20.656;2023-04-09T04:33:01;20.25;;;11.65;;
77298;SDS011;66361;52.034;20.656;2023-04-09T04:37:04;27.15;;;12.65;;
77298;SDS011;66361;52.034;20.656;2023-04-09T04:41:07;24.75;;;14.18;;
77298;SDS011;66361;52.034;20.656;2023-04-09T04:45:13;19.67;;;12.43;;
77298;SDS011;66361;52.034;20.656;2023-04-09T04:49:16;20.55;;;12.77;;
77298;SDS011;66361;52.034;20.656;2023-04-09T04:53:23;21.88;;;13.05;;
77298;SDS011;66361;52.034;20.656;2023-04-09T04:57:30;23.55;;;12.20;;
77298;SDS011;66361;52.034;20.656;2023-04-09T05:01:34;24.17;;;13.23;;
77298;SDS011;66361;52.034;20.656;2023-04-09T05:05:37;24.05;;;12.43;;
77298;SDS011;66361;52.034;20.656;2023-04-09T05:09:40;21.30;;;13.43;;
77298;SDS011;66361;52.034;20.656;2023-04-09T05:13:44;21.27;;;12.52;;
77298;SDS011;66361;52.034;20.656;2023-04-09T05:17:48;22.58;;;12.90;;
77298;SDS011;66361;52.034;20.656;2023-04-09T05:21:52;21.38;;;12.45;;
77298;SDS011;66361;52.034;20.656;2023-04-09T05:25:54;21.92;;;12.93;;
77298;SDS011;66361;52.034;20.656;2023-04-09T05:29:57;25.90;;;13.25;;
77298;SDS011;66361;52.034;20.656;2023-04-09T05:34:02;23.33;;;13.07;;
77298;SDS011;66361;52.034;20.656;2023-04-09T05:38:06;27.08;;;14.00;;
77298;SDS011;66361;52.034;20.656;2023-04-09T05:42:09;25.48;;;14.20;;
77298;SDS011;66361;52.034;20.656;2023-04-09T05:46:12;27.83;;;14.93;;
77298;SDS011;66361;52.034;20.656;2023-04-09T05:50:20;21.38;;;14.02;;
77298;SDS011;66361;52.034;20.656;2023-04-09T05:54:28;24.27;;;13.57;;
77298;SDS011;66361;52.034;20.656;2023-04-09T05:58:32;23.08;;;14.52;;
77298;SDS011;66361;52.034;20.656;2023-04-09T06:02:39;21.00;;;12.73;;
77298;SDS011;66361;52.034;20.656;2023-04-09T06:06:44;20.40;;;12.20;;
77298;SDS011;66361;52.034;20.656;2023-04-09T06:10:47;21.38;;;11.82;;
77298;SDS011;66361;52.034;20.656;2023-04-09T06:14:50;21.15;;;12.27;;
77298;SDS011;66361;52.034;20.656;2023-04-09T06:18:53;21.02;;;13.10;;
77298;SDS011;66361;52.034;20.656;2023-04-09T06:22:58;22.60;;;12.80;;
77298;SDS011;66361;52.034;20.656;2023-04-09T06:27:01;20.92;;;12.57;;
77298;SDS011;66361;52.034;20.656;2023-04-09T06:31:04;18.85;;;12.25;;
77298;SDS011;66361;52.034;20.656;2023-04-09T06:35:08;19.33;;;12.30;;
77298;SDS011;66361;52.034;20.656;2023-04-09T06:39:13;18.70;;;10.88;;
77298;SDS011;66361;52.034;20.656;2023-04-09T06:43:18;19.73;;;10.32;;
77298;SDS011;66361;52.034;20.656;2023-04-09T06:47:24;16.77;;;10.73;;
77298;SDS011;66361;52.034;20.656;2023-04-09T06:51:27;17.70;;;11.00;;
77298;SDS011;66361;52.034;20.656;2023-04-09T06:55:33;18.73;;;10.82;;
77298;SDS011;66361;52.034;20.656;2023-04-09T06:59:35;15.77;;;10.20;;
77298;SDS011;66361;52.034;20.656;2023-04-09T07:07:42;19.52;;;10.40;;
77298;SDS011;66361;52.034;20.656;2023-04-09T07:11:46;14.02;;;9.65;;
77298;SDS011;66361;52.034;20.656;2023-04-09T07:15:51;15.43;;;10.00;;
77298;SDS011;66361;52.034;20.656;2023-04-09T07:20:00;14.32;;;9.15;;
77298;SDS011;66361;52.034;20.656;2023-04-09T07:24:04;14.38;;;10.13;;
77298;SDS011;66361;52.034;20.656;2023-04-09T07:28:09;17.00;;;11.25;;
77298;SDS011;66361;52.034;20.656;2023-04-09T07:32:13;15.73;;;10.00;;
77298;SDS011;66361;52.034;20.656;2023-04-09T07:36:15;14.48;;;9.45;;
77298;SDS011;66361;52.034;20.656;2023-04-09T07:40:21;14.88;;;8.98;;
77298;SDS011;66361;52.034;20.656;2023-04-09T07:48:28;13.30;;;9.20;;
77298;SDS011;66361;52.034;20.656;2023-04-09T07:52:31;14.18;;;9.70;;
77298;SDS011;66361;52.034;20.656;2023-04-09T08:00:38;13.43;;;9.95;;
77298;SDS011;66361;52.034;20.656;2023-04-09T08:04:42;15.43;;;10.25;;
77298;SDS011;66361;52.034;20.656;2023-04-09T08:08:46;13.82;;;9.07;;
77298;SDS011;66361;52.034;20.656;2023-04-09T08:12:52;13.02;;;8.50;;
77298;SDS011;66361;52.034;20.656;2023-04-09T08:16:57;11.65;;;7.82;;
77298;SDS011;66361;52.034;20.656;2023-04-09T08:21:03;13.45;;;8.27;;
77298;SDS011;66361;52.034;20.656;2023-04-09T08:25:06;11.07;;;7.57;;
77298;SDS011;66361;52.034;20.656;2023-04-09T08:29:10;12.25;;;8.68;;
77298;SDS011;66361;52.034;20.656;2023-04-09T08:33:15;11.77;;;8.25;;
77298;SDS011;66361;52.034;20.656;2023-04-09T08:37:18;9.45;;;7.07;;
77298;SDS011;66361;52.034;20.656;2023-04-09T08:41:21;10.45;;;7.78;;
77298;SDS011;66361;52.034;20.656;2023-04-09T08:45:26;10.23;;;7.28;;
77298;SDS011;66361;52.034;20.656;2023-04-09T08:49:32;10.40;;;7.47;;
77298;SDS011;66361;52.034;20.656;2023-04-09T08:53:35;9.60;;;6.75;;
77298;SDS011;66361;52.034;20.656;2023-04-09T08:57:40;10.15;;;7.60;;
77298;SDS011;66361;52.034;20.656;2023-04-09T09:01:43;10.88;;;7.80;;
77298;SDS011;66361;52.034;20.656;2023-04-09T09:05:49;10.38;;;7.05;;
77298;SDS011;66361;52.034;20.656;2023-04-09T09:09:53;10.48;;;7.22;;
77298;SDS011;66361;52.034;20.656;2023-04-09T09:14:01;10.95;;;7.47;;
77298;SDS011;66361;52.034;20.656;2023-04-09T09:18:06;13.20;;;6.97;;
77298;SDS011;66361;52.034;20.656;2023-04-09T09:22:13;11.18;;;7.18;;
77298;SDS011;66361;52.034;20.656;2023-04-09T09:26:17;11.77;;;7.60;;
77298;SDS011;66361;52.034;20.656;2023-04-09T09:30:23;10.57;;;7.05;;
77298;SDS011;66361;52.034;20.656;2023-04-09T09:34:27;11.55;;;7.32;;
77298;SDS011;66361;52.034;20.656;2023-04-09T09:42:34;9.15;;;6.47;;
77298;SDS011;66361;52.034;20.656;2023-04-09T09:46:38;8.00;;;6.22;;
77298;SDS011;66361;52.034;20.656;2023-04-09T09:50:42;8.88;;;6.30;;
77298;SDS011;66361;52.034;20.656;2023-04-09T09:54:50;9.00;;;6.80;;
77298;SDS011;66361;52.034;20.656;2023-04-09T09:58:55;9.55;;;6.53;;
77298;SDS011;66361;52.034;20.656;2023-04-09T10:03:06;9.90;;;6.60;;
77298;SDS011;66361;52.034;20.656;2023-04-09T10:07:16;10.65;;;6.97;;
77298;SDS011;66361;52.034;20.656;2023-04-09T10:11:24;10.35;;;6.82;;
77298;SDS011;66361;52.034;20.656;2023-04-09T10:15:27;11.27;;;7.13;;
77298;SDS011;66361;52.034;20.656;2023-04-09T10:19:31;8.98;;;6.30;;
77298;SDS011;66361;52.034;20.656;2023-04-09T10:23:45;10.65;;;7.78;;
77298;SDS011;66361;52.034;20.656;2023-04-09T10:27:59;9.23;;;6.95;;
77298;SDS011;66361;52.034;20.656;2023-04-09T10:32:03;9.82;;;6.50;;
77298;SDS011;66361;52.034;20.656;2023-04-09T10:36:08;9.25;;;5.82;;
77298;SDS011;66361;52.034;20.656;2023-04-09T10:40:12;9.95;;;6.45;;
77298;SDS011;66361;52.034;20.656;2023-04-09T10:44:22;9.45;;;6.32;;
77298;SDS011;66361;52.034;20.656;2023-04-09T10:48:31;8.55;;;5.57;;
77298;SDS011;66361;52.034;20.656;2023-04-09T10:52:34;9.40;;;6.65;;
77298;SDS011;66361;52.034;20.656;2023-04-09T10:56:51;9.20;;;6.53;;
77298;SDS011;66361;52.034;20.656;2023-04-09T11:01:21;12.45;;;7.30;;
77298;SDS011;66361;52.034;20.656;2023-04-09T11:05:25;11.07;;;7.32;;
77298;SDS011;66361;52.034;20.656;2023-04-09T11:09:33;10.65;;;7.60;;
77298;SDS011;66361;52.034;20.656;2023-04-09T11:13:36;8.05;;;6.55;;
77298;SDS011;66361;52.034;20.656;2023-04-09T11:17:43;19.20;;;10.70;;
77298;SDS011;66361;52.034;20.656;2023-04-09T11:21:47;27.70;;;12.88;;
77298;SDS011;66361;52.034;20.656;2023-04-09T11:25:51;13.65;;;9.30;;
77298;SDS011;66361;52.034;20.656;2023-04-09T11:29:55;11.98;;;8.55;;
77298;SDS011;66361;52.034;20.656;2023-04-09T11:34:02;12.38;;;8.90;;
77298;SDS011;66361;52.034;20.656;2023-04-09T11:38:05;12.88;;;8.73;;
77298;SDS011;66361;52.034;20.656;2023-04-09T11:42:12;10.68;;;8.20;;
77298;SDS011;66361;52.034;20.656;2023-04-09T11:46:15;11.25;;;8.05;;
77298;SDS011;66361;52.034;20.656;2023-04-09T11:50:22;11.48;;;8.10;;
77298;SDS011;66361;52.034;20.656;2023-04-09T11:54:30;13.65;;;9.48;;
77298;SDS011;66361;52.034;20.656;2023-04-09T11:58:33;12.38;;;7.97;;
77298;SDS011;66361;52.034;20.656;2023-04-09T12:02:37;14.38;;;9.10;;
77298;SDS011;66361;52.034;20.656;2023-04-09T12:06:45;12.55;;;8.32;;
77298;SDS011;66361;52.034;20.656;2023-04-09T12:10:48;13.18;;;9.35;;
77298;SDS011;66361;52.034;20.656;2023-04-09T12:14:53;14.18;;;9.35;;
77298;SDS011;66361;52.034;20.656;2023-04-09T12:18:59;13.00;;;9.30;;
77298;SDS011;66361;52.034;20.656;2023-04-09T12:23:07;12.10;;;9.20;;
77298;SDS011;66361;52.034;20.656;2023-04-09T12:27:10;11.98;;;8.27;;
77298;SDS011;66361;52.034;20.656;2023-04-09T12:31:13;13.15;;;9.18;;
77298;SDS011;66361;52.034;20.656;2023-04-09T12:35:17;10.95;;;8.85;;
77298;SDS011;66361;52.034;20.656;2023-04-09T12:39:21;13.02;;;8.57;;
77298;SDS011;66361;52.034;20.656;2023-04-09T12:43:24;12.25;;;9.13;;
77298;SDS011;66361;52.034;20.656;2023-04-09T12:47:27;12.55;;;7.90;;
77298;SDS011;66361;52.034;20.656;2023-04-09T12:51:31;11.65;;;8.70;;
77298;SDS011;66361;52.034;20.656;2023-04-09T12:55:39;10.77;;;7.90;;
77298;SDS011;66361;52.034;20.656;2023-04-09T12:59:43;12.38;;;7.72;;
77298;SDS011;66361;52.034;20.656;2023-04-09T13:03:46;11.57;;;7.63;;
77298;SDS011;66361;52.034;20.656;2023-04-09T13:07:49;11.10;;;7.15;;
77298;SDS011;66361;52.034;20.656;2023-04-09T13:11:54;9.77;;;7.32;;
77298;SDS011;66361;52.034;20.656;2023-04-09T13:15:59;9.43;;;6.75;;
77298;SDS011;66361;52.034;20.656;2023-04-09T13:20:03;10.05;;;7.00;;
77298;SDS011;66361;52.034;20.656;2023-04-09T13:24:07;9.45;;;6.68;;
77298;SDS011;66361;52.034;20.656;2023-04-09T13:28:12;8.55;;;6.88;;
77298;SDS011;66361;52.034;20.656;2023-04-09T13:32:15;8.88;;;6.72;;
77298;SDS011;66361;52.034;20.656;2023-04-09T13:36:21;10.23;;;6.38;;
77298;SDS011;66361;52.034;20.656;2023-04-09T13:40:24;7.95;;;6.22;;
77298;SDS011;66361;52.034;20.656;2023-04-09T13:44:29;6.75;;;5.45;;
77298;SDS011;66361;52.034;20.656;2023-04-09T13:48:33;6.35;;;5.68;;
77298;SDS011;66361;52.034;20.656;2023-04-09T13:52:36;10.20;;;6.32;;
77298;SDS011;66361;52.034;20.656;2023-04-09T13:56:39;8.02;;;5.68;;
77298;SDS011;66361;52.034;20.656;2023-04-09T14:00:44;9.32;;;7.10;;
77298;SDS011;66361;52.034;20.656;2023-04-09T14:04:48;9.85;;;7.35;;
77298;SDS011;66361;52.034;20.656;2023-04-09T14:08:52;9.32;;;7.18;;
77298;SDS011;66361;52.034;20.656;2023-04-09T14:12:55;9.93;;;7.00;;
77298;SDS011;66361;52.034;20.656;2023-04-09T14:17:00;9.85;;;7.50;;
77298;SDS011;66361;52.034;20.656;2023-04-09T14:21:03;9.45;;;6.82;;
77298;SDS011;66361;52.034;20.656;2023-04-09T14:25:10;8.25;;;6.20;;
77298;SDS011;66361;52.034;20.656;2023-04-09T14:29:13;8.93;;;6.57;;
77298;SDS011;66361;52.034;20.656;2023-04-09T14:33:21;9.82;;;6.60;;
77298;SDS011;66361;52.034;20.656;2023-04-09T14:37:24;9.25;;;6.72;;
77298;SDS011;66361;52.034;20.656;2023-04-09T14:41:28;9.10;;;7.10;;
77298;SDS011;66361;52.034;20.656;2023-04-09T14:45:34;10.52;;;7.82;;
77298;SDS011;66361;52.034;20.656;2023-04-09T14:49:38;8.80;;;6.93;;
77298;SDS011;66361;52.034;20.656;2023-04-09T14:53:41;10.07;;;6.82;;
77298;SDS011;66361;52.034;20.656;2023-04-09T14:57:46;10.63;;;6.75;;
77298;SDS011;66361;52.034;20.656;2023-04-09T15:01:50;9.73;;;7.18;;
77298;SDS011;66361;52.034;20.656;2023-04-09T15:05:55;8.18;;;6.13;;
77298;SDS011;66361;52.034;20.656;2023-04-09T15:10:01;7.32;;;6.45;;
77298;SDS011;66361;52.034;20.656;2023-04-09T15:14:05;13.10;;;6.50;;
77298;SDS011;66361;52.034;20.656;2023-04-09T15:18:09;8.88;;;6.47;;
77298;SDS011;66361;52.034;20.656;2023-04-09T15:26:16;8.25;;;5.90;;
77298;SDS011;66361;52.034;20.656;2023-04-09T15:30:19;6.55;;;5.47;;
77298;SDS011;66361;52.034;20.656;2023-04-09T15:34:22;6.35;;;5.60;;
77298;SDS011;66361;52.034;20.656;2023-04-09T15:38:29;7.82;;;5.88;;
77298;SDS011;66361;52.034;20.656;2023-04-09T15:42:32;7.97;;;6.20;;
77298;SDS011;66361;52.034;20.656;2023-04-09T15:46:38;9.68;;;6.43;;
77298;SDS011;66361;52.034;20.656;2023-04-09T15:50:41;7.57;;;5.95;;
77298;SDS011;66361;52.034;20.656;2023-04-09T15:54:50;7.78;;;6.25;;
77298;SDS011;66361;52.034;20.656;2023-04-09T15:58:54;7.32;;;6.10;;
77298;SDS011;66361;52.034;20.656;2023-04-09T16:02:57;9.35;;;6.60;;
77298;SDS011;66361;52.034;20.656;2023-04-09T16:07:00;8.07;;;6.40;;
77298;SDS011;66361;52.034;20.656;2023-04-09T16:11:06;8.70;;;7.00;;
77298;SDS011;66361;52.034;20.656;2023-04-09T16:15:09;7.95;;;6.45;;
77298;SDS011;66361;52.034;20.656;2023-04-09T16:19:14;7.93;;;5.95;;
77298;SDS011;66361;52.034;20.656;2023-04-09T16:23:19;9.20;;;7.03;;
77298;SDS011;66361;52.034;20.656;2023-04-09T16:27:25;10.35;;;7.55;;
77298;SDS011;66361;52.034;20.656;2023-04-09T16:31:28;9.43;;;6.50;;
77298;SDS011;66361;52.034;20.656;2023-04-09T16:35:35;9.95;;;7.75;;
77298;SDS011;66361;52.034;20.656;2023-04-09T16:39:42;10.70;;;8.10;;
77298;SDS011;66361;52.034;20.656;2023-04-09T16:43:49;9.77;;;6.82;;
77298;SDS011;66361;52.034;20.656;2023-04-09T16:47:56;10.57;;;8.32;;
77298;SDS011;66361;52.034;20.656;2023-04-09T16:51:59;11.18;;;7.72;;
77298;SDS011;66361;52.034;20.656;2023-04-09T16:56:03;9.07;;;7.25;;
77298;SDS011;66361;52.034;20.656;2023-04-09T17:00:10;12.90;;;7.85;;
77298;SDS011;66361;52.034;20.656;2023-04-09T17:04:17;12.38;;;9.13;;
77298;SDS011;66361;52.034;20.656;2023-04-09T17:08:20;11.27;;;8.55;;
77298;SDS011;66361;52.034;20.656;2023-04-09T17:12:24;17.38;;;9.57;;
77298;SDS011;66361;52.034;20.656;2023-04-09T17:16:29;13.10;;;10.65;;
77298;SDS011;66361;52.034;20.656;2023-04-09T17:20:33;14.52;;;10.52;;
77298;SDS011;66361;52.034;20.656;2023-04-09T17:24:39;16.15;;;11.52;;
77298;SDS011;66361;52.034;20.656;2023-04-09T17:28:43;15.55;;;12.13;;
77298;SDS011;66361;52.034;20.656;2023-04-09T17:32:49;22.55;;;18.73;;
77298;SDS011;66361;52.034;20.656;2023-04-09T17:36:53;15.23;;;11.52;;
77298;SDS011;66361;52.034;20.656;2023-04-09T17:41:01;14.27;;;10.77;;
77298;SDS011;66361;52.034;20.656;2023-04-09T17:45:08;16.60;;;11.80;;
77298;SDS011;66361;52.034;20.656;2023-04-09T17:49:13;16.15;;;11.90;;
77298;SDS011;66361;52.034;20.656;2023-04-09T17:53:16;21.05;;;13.57;;
77298;SDS011;66361;52.034;20.656;2023-04-09T18:01:22;20.63;;;15.68;;
77298;SDS011;66361;52.034;20.656;2023-04-09T18:05:27;24.88;;;17.90;;
77298;SDS011;66361;52.034;20.656;2023-04-09T18:09:30;23.58;;;17.85;;
77298;SDS011;66361;52.034;20.656;2023-04-09T18:13:35;24.10;;;18.05;;
77298;SDS011;66361;52.034;20.656;2023-04-09T18:17:38;22.38;;;16.73;;
77298;SDS011;66361;52.034;20.656;2023-04-09T18:21:46;27.92;;;18.27;;
77298;SDS011;66361;52.034;20.656;2023-04-09T18:25:49;25.92;;;17.75;;
77298;SDS011;66361;52.034;20.656;2023-04-09T18:29:52;25.38;;;16.77;;
77298;SDS011;66361;52.034;20.656;2023-04-09T18:33:56;24.67;;;15.88;;
77298;SDS011;66361;52.034;20.656;2023-04-09T18:42:05;22.25;;;15.75;;
77298;SDS011;66361;52.034;20.656;2023-04-09T18:46:10;26.65;;;16.45;;
77298;SDS011;66361;52.034;20.656;2023-04-09T18:54:19;22.13;;;15.93;;
77298;SDS011;66361;52.034;20.656;2023-04-09T18:58:24;26.92;;;17.17;;
77298;SDS011;66361;52.034;20.656;2023-04-09T19:02:30;27.30;;;17.08;;
77298;SDS011;66361;52.034;20.656;2023-04-09T19:06:33;24.02;;;15.20;;
77298;SDS011;66361;52.034;20.656;2023-04-09T19:10:39;24.73;;;15.50;;
77298;SDS011;66361;52.034;20.656;2023-04-09T19:14:43;24.00;;;16.05;;
77298;SDS011;66361;52.034;20.656;2023-04-09T19:18:49;23.38;;;14.32;;
77298;SDS011;66361;52.034;20.656;2023-04-09T19:22:53;30.30;;;16.75;;
77298;SDS011;66361;52.034;20.656;2023-04-09T19:27:01;33.17;;;15.93;;
77298;SDS011;66361;52.034;20.656;2023-04-09T19:31:10;26.25;;;14.30;;
77298;SDS011;66361;52.034;20.656;2023-04-09T19:35:17;20.48;;;14.07;;
77298;SDS011;66361;52.034;20.656;2023-04-09T19:39:20;19.60;;;14.38;;
77298;SDS011;66361;52.034;20.656;2023-04-09T19:43:25;19.42;;;13.65;;
77298;SDS011;66361;52.034;20.656;2023-04-09T19:47:29;22.73;;;14.02;;
77298;SDS011;66361;52.034;20.656;2023-04-09T19:51:35;23.48;;;15.30;;
77298;SDS011;66361;52.034;20.656;2023-04-09T19:55:39;21.33;;;14.18;;
77298;SDS011;66361;52.034;20.656;2023-04-09T19:59:46;21.10;;;13.38;;
77298;SDS011;66361;52.034;20.656;2023-04-09T20:03:50;23.60;;;14.38;;
77298;SDS011;66361;52.034;20.656;2023-04-09T20:07:54;23.83;;;13.73;;
77298;SDS011;66361;52.034;20.656;2023-04-09T20:11:57;18.95;;;13.38;;
77298;SDS011;66361;52.034;20.656;2023-04-09T20:16:06;19.70;;;13.63;;
77298;SDS011;66361;52.034;20.656;2023-04-09T20:20:09;22.02;;;13.75;;
77298;SDS011;66361;52.034;20.656;2023-04-09T20:24:13;23.75;;;13.63;;
77298;SDS011;66361;52.034;20.656;2023-04-09T20:28:18;20.90;;;14.35;;
77298;SDS011;66361;52.034;20.656;2023-04-09T20:36:25;19.45;;;13.13;;
77298;SDS011;66361;52.034;20.656;2023-04-09T20:40:28;24.83;;;12.98;;
77298;SDS011;66361;52.034;20.656;2023-04-09T20:44:32;23.88;;;16.00;;
77298;SDS011;66361;52.034;20.656;2023-04-09T20:52:40;24.15;;;14.93;;
77298;SDS011;66361;52.034;20.656;2023-04-09T20:56:43;22.15;;;14.40;;
77298;SDS011;66361;52.034;20.656;2023-04-09T21:04:51;20.60;;;13.77;;
77298;SDS011;66361;52.034;20.656;2023-04-09T21:08:55;25.15;;;15.75;;
77298;SDS011;66361;52.034;20.656;2023-04-09T21:13:01;24.42;;;15.00;;
77298;SDS011;66361;52.034;20.656;2023-04-09T21:17:06;23.35;;;15.57;;
77298;SDS011;66361;52.034;20.656;2023-04-09T21:21:11;24.52;;;14.50;;
77298;SDS011;66361;52.034;20.656;2023-04-09T21:25:14;26.02;;;15.23;;
77298;SDS011;66361;52.034;20.656;2023-04-09T21:29:20;22.38;;;14.63;;
77298;SDS011;66361;52.034;20.656;2023-04-09T21:33:23;26.23;;;15.55;;
77298;SDS011;66361;52.034;20.656;2023-04-09T21:37:32;20.90;;;12.93;;
77298;SDS011;66361;52.034;20.656;2023-04-09T21:41:39;22.58;;;14.50;;
77298;SDS011;66361;52.034;20.656;2023-04-09T21:45:42;24.00;;;15.45;;
77298;SDS011;66361;52.034;20.656;2023-04-09T21:49:45;21.85;;;14.27;;
77298;SDS011;66361;52.034;20.656;2023-04-09T21:53:59;28.48;;;19.55;;
77298;SDS011;66361;52.034;20.656;2023-04-09T21:58:03;22.85;;;15.55;;
77298;SDS011;66361;52.034;20.656;2023-04-09T22:02:07;21.52;;;13.63;;
77298;SDS011;66361;52.034;20.656;2023-04-09T22:06:11;19.88;;;12.50;;
77298;SDS011;66361;52.034;20.656;2023-04-09T22:10:16;22.50;;;12.80;;
77298;SDS011;66361;52.034;20.656;2023-04-09T22:14:22;24.30;;;14.40;;
77298;SDS011;66361;52.034;20.656;2023-04-09T22:18:26;23.90;;;14.90;;
77298;SDS011;66361;52.034;20.656;2023-04-09T22:22:29;27.58;;;15.02;;
77298;SDS011;66361;52.034;20.656;2023-04-09T22:26:34;25.17;;;13.55;;
77298;SDS011;66361;52.034;20.656;2023-04-09T22:30:39;24.45;;;15.00;;
77298;SDS011;66361;52.034;20.656;2023-04-09T22:34:42;23.77;;;15.48;;
77298;SDS011;66361;52.034;20.656;2023-04-09T22:38:45;26.75;;;15.13;;
77298;SDS011;66361;52.034;20.656;2023-04-09T22:42:53;30.80;;;15.75;;
77298;SDS011;66361;52.034;20.656;2023-04-09T22:46:58;28.85;;;16.63;;
77298;SDS011;66361;52.034;20.656;2023-04-09T22:51:04;26.08;;;16.42;;
77298;SDS011;66361;52.034;20.656;2023-04-09T22:55:08;33.00;;;17.55;;
77298;SDS011;66361;52.034;20.656;2023-04-09T22:59:14;31.20;;;15.07;;
77298;SDS011;66361;52.034;20.656;2023-04-09T23:03:39;50.15;;;15.15;;
77298;SDS011;66361;52.034;20.656;2023-04-09T23:07:42;36.03;;;15.18;;
77298;SDS011;66361;52.034;20.656;2023-04-09T23:11:47;294.83;;;25.27;;
77298;SDS011;66361;52.034;20.656;2023-04-09T23:15:51;28.23;;;14.23;;
77298;SDS011;66361;52.034;20.656;2023-04-09T23:19:57;24.98;;;14.10;;
77298;SDS011;66361;52.034;20.656;2023-04-09T23:23:59;62.90;;;16.23;;
77298;SDS011;66361;52.034;20.656;2023-04-09T23:28:03;23.90;;;14.40;;
77298;SDS011;66361;52.034;20.656;2023-04-09T23:32:07;91.38;;;16.75;;
77298;SDS011;66361;52.034;20.656;2023-04-09T23:36:13;291.35;;;26.13;;
77298;SDS011;66361;52.034;20.656;2023-04-09T23:40:16;28.15;;;12.27;;
77298;SDS011;66361;52.034;20.656;2023-04-09T23:44:19;26.77;;;14.73;;
77298;SDS011;66361;52.034;20.656;2023-04-09T23:48:27;26.33;;;15.55;;
77298;SDS011;66361;52.034;20.656;2023-04-09T23:52:34;31.23;;;14.98;;
77298;SDS011;66361;52.034;20.656;2023-04-09T23:56:39;26.67;;;13.70;;
